createdAt,value
2018-08-12T00:01:18.381Z,17.90
2018-08-12T00:05:20.635Z,17.60
2018-08-12T00:09:22.946Z,17.60
2018-08-12T00:13:25.422Z,17.50
2018-08-12T00:17:27.635Z,17.50
2018-08-12T00:21:29.831Z,17.50
2018-08-12T00:25:32.026Z,17.40
2018-08-12T00:29:34.205Z,17.30
2018-08-12T00:33:36.392Z,17.30
2018-08-12T00:37:38.761Z,17.30
2018-08-12T00:41:40.990Z,17.10
2018-08-12T00:45:43.144Z,17.10
2018-08-12T00:49:45.369Z,17.00
2018-08-12T00:53:48.354Z,16.90
2018-08-12T00:57:50.574Z,17.00
2018-08-12T01:01:52.764Z,16.70
2018-08-12T01:05:54.978Z,16.60
2018-08-12T01:09:57.235Z,16.80
2018-08-12T01:13:59.539Z,16.70
2018-08-12T01:18:01.901Z,16.70
2018-08-12T01:22:04.125Z,16.70
2018-08-12T01:26:06.538Z,16.60
2018-08-12T01:30:11.525Z,16.60
2018-08-12T01:34:13.690Z,16.60
2018-08-12T01:38:15.856Z,16.50
2018-08-12T01:42:18.078Z,16.40
2018-08-12T01:46:20.917Z,16.30
2018-08-12T01:50:23.175Z,16.20
2018-08-12T01:54:25.485Z,16.30
2018-08-12T01:58:27.739Z,16.20
2018-08-12T02:02:29.931Z,16.10
2018-08-12T02:06:32.168Z,16.10
2018-08-12T02:10:34.371Z,16.00
2018-08-12T02:14:36.523Z,16.00
2018-08-12T02:18:38.705Z,16.00
2018-08-12T02:22:41.495Z,16.10
2018-08-12T02:26:43.734Z,16.00
2018-08-12T02:30:45.899Z,16.00
2018-08-12T02:34:48.101Z,15.90
2018-08-12T02:38:50.403Z,15.80
2018-08-12T02:42:52.594Z,15.70
2018-08-12T02:46:54.800Z,15.70
2018-08-12T02:50:57.319Z,15.80
2018-08-12T02:54:59.534Z,15.70
2018-08-12T02:59:01.718Z,15.60
2018-08-12T03:03:03.915Z,15.50
2018-08-12T03:07:06.120Z,15.10
2018-08-12T03:11:08.504Z,15.30
2018-08-12T03:15:10.958Z,15.10
2018-08-12T03:19:13.263Z,15.10
2018-08-12T03:23:15.447Z,15.30
2018-08-12T03:27:17.615Z,15.30
2018-08-12T03:31:19.865Z,15.30
2018-08-12T03:35:22.023Z,15.30
2018-08-12T03:39:24.199Z,15.20
2018-08-12T03:43:26.457Z,15.20
2018-08-12T03:47:28.685Z,15.20
2018-08-12T03:51:30.879Z,15.20
2018-08-12T03:55:33.087Z,15.20
2018-08-12T03:59:35.318Z,15.10
2018-08-12T04:03:37.535Z,15.00
2018-08-12T04:07:39.772Z,15.10
2018-08-12T04:11:41.995Z,15.00
2018-08-12T04:15:44.376Z,15.00
2018-08-12T04:19:46.716Z,14.90
2018-08-12T04:23:48.914Z,15.00
2018-08-12T04:27:51.127Z,15.00
2018-08-12T04:31:53.334Z,15.00
2018-08-12T04:35:55.554Z,14.70
2018-08-12T04:39:57.808Z,14.60
2018-08-12T04:43:59.971Z,14.50
2018-08-12T04:48:02.197Z,15.30
2018-08-12T04:52:04.359Z,15.50
2018-08-12T04:56:06.571Z,15.50
2018-08-12T05:00:09.315Z,15.60
2018-08-12T05:04:11.571Z,15.70
2018-08-12T05:08:13.740Z,15.70
2018-08-12T05:12:15.918Z,15.60
2018-08-12T05:16:18.222Z,15.70
2018-08-12T05:20:20.427Z,16.50
2018-08-12T05:24:22.835Z,16.60
2018-08-12T05:28:25.120Z,16.50
2018-08-12T05:32:27.334Z,16.50
2018-08-12T05:36:29.557Z,16.70
2018-08-12T05:40:31.762Z,17.30
2018-08-12T05:44:33.999Z,17.70
2018-08-12T05:48:36.242Z,18.10
2018-08-12T05:52:38.456Z,18.60
2018-08-12T05:56:40.681Z,19.10
2018-08-12T06:00:42.992Z,19.70
2018-08-12T06:04:45.254Z,20.20
2018-08-12T06:08:47.481Z,20.70
2018-08-12T06:12:49.683Z,21.00
2018-08-12T06:16:51.857Z,21.10
2018-08-12T06:20:54.102Z,21.80
2018-08-12T06:24:56.404Z,22.50
2018-08-12T06:28:58.645Z,22.80
2018-08-12T06:33:00.879Z,23.20
2018-08-12T06:37:03.178Z,23.50
2018-08-12T06:41:05.409Z,24.10
2018-08-12T06:45:09.887Z,24.60
2018-08-12T06:49:12.115Z,24.90
2018-08-12T06:53:14.311Z,25.10
2018-08-12T06:57:16.503Z,25.60
2018-08-12T07:01:18.730Z,26.00
2018-08-12T07:05:20.940Z,26.40
2018-08-12T07:09:23.216Z,25.70
2018-08-12T07:13:25.469Z,25.60
2018-08-12T07:17:27.687Z,26.00
2018-08-12T07:21:29.891Z,26.70
2018-08-12T07:25:32.051Z,27.10
2018-08-12T07:29:34.291Z,27.00
2018-08-12T07:33:36.578Z,27.60
2018-08-12T07:37:40.108Z,27.80
2018-08-12T07:41:42.349Z,28.10
2018-08-12T07:45:44.577Z,27.90
2018-08-12T07:49:46.770Z,27.80
2018-08-12T07:53:48.965Z,28.80
2018-08-12T07:57:51.222Z,28.40
2018-08-12T08:01:53.452Z,27.80
2018-08-12T08:05:55.641Z,28.70
2018-08-12T08:09:57.843Z,29.10
2018-08-12T08:14:00.063Z,29.20
2018-08-12T08:18:02.262Z,29.30
2018-08-12T08:22:04.583Z,29.50
2018-08-12T08:26:06.807Z,29.00
2018-08-12T08:30:11.798Z,27.80
2018-08-12T08:34:13.987Z,27.70
2018-08-12T08:38:16.225Z,27.00
2018-08-12T08:42:18.431Z,28.30
2018-08-12T08:46:20.679Z,28.00
2018-08-12T08:50:22.898Z,26.90
2018-08-12T08:54:25.243Z,28.30
2018-08-12T08:58:27.532Z,28.60
2018-08-12T09:02:29.807Z,28.40
2018-08-12T09:06:32.206Z,28.60
2018-08-12T09:10:34.535Z,26.70
2018-08-12T09:14:36.835Z,26.80
2018-08-12T09:18:39.104Z,27.90
2018-08-12T09:22:41.426Z,27.60
2018-08-12T09:26:43.676Z,28.30
2018-08-12T09:30:45.847Z,29.20
2018-08-12T09:34:48.031Z,29.70
2018-08-12T09:38:50.215Z,30.20
2018-08-12T09:42:52.447Z,29.70
2018-08-12T09:46:54.744Z,29.40
2018-08-12T09:50:56.950Z,29.40
2018-08-12T09:54:59.312Z,27.50
2018-08-12T09:59:01.559Z,28.10
2018-08-12T10:03:03.853Z,26.90
2018-08-12T10:07:06.065Z,28.70
2018-08-12T10:11:08.437Z,29.20
2018-08-12T10:15:11.384Z,30.30
2018-08-12T10:19:13.795Z,30.00
2018-08-12T10:23:16.251Z,30.40
2018-08-12T10:27:18.436Z,30.20
2018-08-12T10:31:20.681Z,30.30
2018-08-12T10:35:22.882Z,28.00
2018-08-12T10:39:25.080Z,28.60
2018-08-12T10:43:27.473Z,28.10
2018-08-12T10:47:29.717Z,30.10
2018-08-12T10:51:31.981Z,30.40
2018-08-12T10:55:34.272Z,30.90
2018-08-12T10:59:36.573Z,31.20
2018-08-12T11:03:38.832Z,29.20
2018-08-12T11:07:43.159Z,29.40
2018-08-12T11:11:45.670Z,29.70
2018-08-12T11:15:47.958Z,29.90
2018-08-12T11:19:54.496Z,28.70
2018-08-12T11:23:56.872Z,29.40
2018-08-12T11:27:59.081Z,29.90
2018-08-12T11:32:01.378Z,30.40
2018-08-12T11:36:03.691Z,29.80
2018-08-12T11:40:06.905Z,29.80
2018-08-12T11:44:09.331Z,30.00
2018-08-12T11:48:11.832Z,31.30
2018-08-12T11:52:16.315Z,31.30
2018-08-12T11:56:18.667Z,31.00
2018-08-12T12:00:21.468Z,31.50
2018-08-12T12:04:24.745Z,31.80
2018-08-12T12:08:27.053Z,31.50
2018-08-12T12:12:30.177Z,31.10
2018-08-12T12:16:32.447Z,31.40
2018-08-12T12:20:34.698Z,32.20
2018-08-12T12:24:36.944Z,31.60
2018-08-12T12:28:39.260Z,32.70
2018-08-12T12:32:42.064Z,34.80
2018-08-12T12:36:44.416Z,34.50
2018-08-12T12:40:46.686Z,35.00
2018-08-12T12:44:48.988Z,34.80
2018-08-12T12:48:51.173Z,33.50
2018-08-12T12:52:53.417Z,32.40
2018-08-12T12:56:55.680Z,33.30
2018-08-12T13:00:57.994Z,33.40
2018-08-12T13:05:00.561Z,33.90
2018-08-12T13:09:02.863Z,34.10
2018-08-12T13:13:05.113Z,34.70
2018-08-12T13:17:07.386Z,34.20
2018-08-12T13:21:09.667Z,34.90
2018-08-12T13:25:13.773Z,34.70
2018-08-12T13:29:16.039Z,34.40
2018-08-12T13:33:18.285Z,35.40
2018-08-12T13:37:20.505Z,34.00
2018-08-12T13:41:22.706Z,34.50
2018-08-12T13:45:25.211Z,36.50
2018-08-12T13:49:27.419Z,36.00
2018-08-12T13:53:29.599Z,36.00
2018-08-12T13:57:31.887Z,36.60
2018-08-12T14:01:34.530Z,36.20
2018-08-12T14:05:36.730Z,35.30
2018-08-12T14:09:39.159Z,34.50
2018-08-12T14:13:41.493Z,35.00
2018-08-12T14:17:44.756Z,34.80
2018-08-12T14:21:46.963Z,34.40
2018-08-12T14:25:49.225Z,34.00
2018-08-12T14:29:51.851Z,33.20
2018-08-12T14:33:54.394Z,34.80
2018-08-12T14:37:56.581Z,34.30
2018-08-12T14:41:58.761Z,33.70
2018-08-12T14:46:00.996Z,34.30
2018-08-12T14:50:05.586Z,35.10
2018-08-12T14:54:07.792Z,35.10
2018-08-12T14:58:10.057Z,35.00
2018-08-12T15:02:12.343Z,34.90
2018-08-12T15:06:14.539Z,34.20
2018-08-12T15:10:16.931Z,32.90
2018-08-12T15:14:19.134Z,32.50
2018-08-12T15:18:21.682Z,32.90
2018-08-12T15:22:24.056Z,33.20
2018-08-12T15:26:26.180Z,32.90
2018-08-12T15:30:28.540Z,33.40
2018-08-12T15:34:30.740Z,33.50
2018-08-12T15:38:32.980Z,32.40
2018-08-12T15:42:35.171Z,32.20
2018-08-12T15:46:37.744Z,31.40
2018-08-12T15:50:40.289Z,31.30
2018-08-12T15:54:42.534Z,31.10
2018-08-12T15:58:44.829Z,31.10
2018-08-12T16:02:47.158Z,30.80
2018-08-12T16:06:49.688Z,30.80
2018-08-12T16:10:51.927Z,30.30
2018-08-12T16:14:54.162Z,31.50
2018-08-12T16:18:56.390Z,31.20
2018-08-12T16:22:58.668Z,30.60
2018-08-12T16:27:00.943Z,31.50
2018-08-12T16:31:03.503Z,31.70
2018-08-12T16:35:07.030Z,30.90
2018-08-12T16:39:11.186Z,30.20
2018-08-12T16:43:13.651Z,30.50
2018-08-12T16:47:15.826Z,30.40
2018-08-12T16:51:18.183Z,30.20
2018-08-12T16:55:20.384Z,30.10
2018-08-12T16:59:22.600Z,30.30
2018-08-12T17:03:24.770Z,30.10
2018-08-12T17:07:27.244Z,30.00
2018-08-12T17:11:29.614Z,29.70
2018-08-12T17:15:31.912Z,29.40
2018-08-12T17:19:34.090Z,29.70
2018-08-12T17:23:36.436Z,30.40
2018-08-12T17:27:38.598Z,30.70
2018-08-12T17:31:40.863Z,30.60
2018-08-12T17:35:43.139Z,30.80
2018-08-12T17:39:45.315Z,31.00
2018-08-12T17:43:47.498Z,30.70
2018-08-12T17:47:49.716Z,30.80
2018-08-12T17:51:51.909Z,30.50
2018-08-12T17:55:54.190Z,30.80
2018-08-12T17:59:56.773Z,30.80
2018-08-12T18:03:59.511Z,30.70
2018-08-12T18:08:01.784Z,30.50
2018-08-12T18:12:04.152Z,29.80
2018-08-12T18:16:06.411Z,29.50
2018-08-12T18:20:09.212Z,29.50
2018-08-12T18:24:11.385Z,29.80
2018-08-12T18:28:13.648Z,29.40
2018-08-12T18:32:15.902Z,29.20
2018-08-12T18:36:18.271Z,29.30
2018-08-12T18:40:20.466Z,29.50
2018-08-12T18:44:22.719Z,29.60
2018-08-12T18:48:24.943Z,29.50
2018-08-12T18:52:27.461Z,29.20
2018-08-12T18:56:29.715Z,29.10
2018-08-12T19:00:31.912Z,28.80
2018-08-12T19:04:34.585Z,28.60
2018-08-12T19:08:36.912Z,28.00
2018-08-12T19:12:39.689Z,28.00
2018-08-12T19:16:42.708Z,27.90
2018-08-12T19:20:44.990Z,27.80
2018-08-12T19:24:47.201Z,27.50
2018-08-12T19:28:49.420Z,27.50
2018-08-12T19:32:51.934Z,27.00
2018-08-12T19:36:54.344Z,26.90
2018-08-12T19:40:56.591Z,26.60
2018-08-12T19:44:58.864Z,26.60
2018-08-12T19:49:01.252Z,26.50
2018-08-12T19:53:03.488Z,26.20
2018-08-12T19:57:05.655Z,26.10
2018-08-12T20:01:07.869Z,25.80
2018-08-12T20:05:10.299Z,25.40
2018-08-12T20:09:12.499Z,25.50
2018-08-12T20:13:14.697Z,25.20
2018-08-12T20:17:16.841Z,25.10
2018-08-12T20:21:19.051Z,24.90
2018-08-12T20:25:24.129Z,24.70
2018-08-12T20:29:26.319Z,24.80
2018-08-12T20:33:28.521Z,24.70
2018-08-12T20:37:30.707Z,24.50
2018-08-12T20:41:32.944Z,24.10
2018-08-12T20:45:35.125Z,24.00
2018-08-12T20:49:37.335Z,23.90
2018-08-12T20:53:39.626Z,24.10
2018-08-12T20:57:41.814Z,23.80
2018-08-12T21:01:44.316Z,23.80
2018-08-12T21:05:46.534Z,23.80
2018-08-12T21:09:48.719Z,23.50
2018-08-12T21:13:50.897Z,23.40
2018-08-12T21:17:53.124Z,23.30
2018-08-12T21:21:55.299Z,23.10
2018-08-12T21:25:58.519Z,22.90
2018-08-12T21:30:00.822Z,22.80
2018-08-12T21:34:03.082Z,22.80
2018-08-12T21:38:05.343Z,22.70
2018-08-12T21:42:07.652Z,22.60
2018-08-12T21:46:09.908Z,22.50
2018-08-12T21:50:12.450Z,22.50
2018-08-12T21:54:14.610Z,22.40
2018-08-12T21:58:16.823Z,22.30
2018-08-12T22:02:19.131Z,22.20
2018-08-12T22:06:21.328Z,22.10
2018-08-12T22:10:23.495Z,22.10
2018-08-12T22:14:25.691Z,22.00
2018-08-12T22:18:27.861Z,21.90
2018-08-12T22:22:30.047Z,21.80
2018-08-12T22:26:32.240Z,21.70
2018-08-12T22:30:34.418Z,21.70
2018-08-12T22:34:36.634Z,21.60
2018-08-12T22:38:38.850Z,21.50
2018-08-12T22:44:10.562Z,21.60
2018-08-12T22:48:12.724Z,21.00
2018-08-12T22:52:14.915Z,21.30
2018-08-12T22:56:17.171Z,21.00
2018-08-12T23:00:19.742Z,20.90
2018-08-12T23:04:22.052Z,21.10
2018-08-12T23:08:24.538Z,21.10
2018-08-12T23:12:26.723Z,21.00
2018-08-12T23:16:40.265Z,21.10
2018-08-12T23:20:42.418Z,20.90
2018-08-12T23:24:44.571Z,21.00
2018-08-12T23:28:46.912Z,21.00
2018-08-12T23:32:49.293Z,20.90
2018-08-12T23:36:51.455Z,20.80
2018-08-12T23:40:53.615Z,20.40
2018-08-12T23:44:55.768Z,20.20
2018-08-12T23:48:57.916Z,20.60
2018-08-12T23:53:00.075Z,20.60
2018-08-12T23:57:02.327Z,20.80
